Airfield :
LOGIN :

Register | Disclaimer

   EN    FR    IT 

 










Legend :    VFR   Marginal VFR   IFR   Intensive IFR   Very Intensive IFR
Visi :
Ceiling :
>= 8 km
>= 3000ft
5 to 8 km
1000 to 3000 ft
1500m to 5 km
500 to 1000 ft
800 to 1500m
200 to 500 ft
< 800m
< 200 ft
Symbols :   Thunderstorms  Fog  Heavy snow  Heavy precipitations  Wind > 20 kt
SIGMETs :     Misc.  Thunderstorms  Icing  Turbulence  Mountain Waves  Volcanic Ashes






- Airport Elevation : 22 ft
- IATA code : FSS


EGQK - RAF Kinloss

CURRENT METAR :
  • 272350Z AUTO 21005KT 9999 SCT050/// BKN080/// 03/00 Q1002 RERA

EXPIRED METARs :
  • 272250Z AUTO 21007KT 9999 BKN070/// 03/M00 Q1002
  • 272150Z AUTO 21009KT 9999 FEW130/// 03/M01 Q1002

TAF TAF EGQK
Valid from the 27 at 12:00 until the 28 at 06:00 UTC


271040Z 2712/2806 25014KT 9999 SCT025
TEMPO 2712/2720 27017G27KT
PROB30
TEMPO 2712/2717 3000 SHRASN SCT006 SCT012CB
PROB30
TEMPO 2722/2724 6000 -RASN SCT022



MET'MAP, your aeronautical weather chart ! - Copyright ORBIFLY December 2007 - Disclaimer

ORBIFLY MET'MAP TEAM :

Programming & Development : Alexandra Zaïnal
Concept & original design : Baudouin d'Aumeries
Assistance for programming : Marc-Olivier Méhu
Technical & hardware support : Manuel Goepfert

Contact : metmap@orbifly.com




SOURCES & CREDITS :

   NOAA